createdAt,value
2019-02-27T00:01:49.841Z,0.90
2019-02-27T00:04:18.146Z,0.90
2019-02-27T00:06:48.000Z,0.90
2019-02-27T00:09:15.151Z,0.80
2019-02-27T00:11:45.951Z,0.60
2019-02-27T00:14:12.152Z,0.50
2019-02-27T00:16:41.743Z,0.20
2019-02-27T00:19:09.160Z,0.00
2019-02-27T00:21:36.829Z,-0.10
2019-02-27T00:24:04.456Z,0.00
2019-02-27T00:26:32.111Z,0.10
2019-02-27T00:28:59.743Z,-0.10
2019-02-27T00:31:27.393Z,0.00
2019-02-27T00:33:59.513Z,0.10
2019-02-27T00:36:25.519Z,0.10
2019-02-27T00:38:53.167Z,0.20
2019-02-27T00:41:20.827Z,0.10
2019-02-27T00:43:48.456Z,0.10
2019-02-27T00:46:16.104Z,0.20
2019-02-27T00:48:43.732Z,0.10
2019-02-27T00:51:11.995Z,0.00
2019-02-27T00:53:40.382Z,0.00
2019-02-27T00:56:11.995Z,0.10
2019-02-27T00:58:37.383Z,0.10
2019-02-27T01:01:05.304Z,0.10
2019-02-27T01:03:32.935Z,-0.10
2019-02-27T01:06:00.657Z,-0.20
2019-02-27T01:08:28.282Z,-0.10
2019-02-27T01:10:55.945Z,0.00
2019-02-27T01:13:23.568Z,-0.30
2019-02-27T01:15:51.216Z,-0.10
2019-02-27T01:18:18.838Z,0.00
2019-02-27T01:20:46.677Z,-0.10
2019-02-27T01:23:14.362Z,-0.20
2019-02-27T01:25:42.066Z,-0.10
2019-02-27T01:28:11.063Z,-0.20
2019-02-27T01:30:39.070Z,-0.30
2019-02-27T01:33:06.766Z,-0.50
2019-02-27T01:35:34.395Z,-0.40
2019-02-27T01:38:05.086Z,-0.50
2019-02-27T01:40:31.395Z,-0.40
2019-02-27T01:42:59.051Z,-0.40
2019-02-27T01:45:26.691Z,-0.50
2019-02-27T01:47:54.326Z,-0.50
2019-02-27T01:50:25.738Z,-0.40
2019-02-27T01:52:53.390Z,-0.50
2019-02-27T01:55:22.445Z,-0.40
2019-02-27T01:57:50.315Z,-0.30
2019-02-27T02:00:17.951Z,-0.30
2019-02-27T02:02:51.480Z,-0.20
2019-02-27T02:05:19.111Z,-0.20
2019-02-27T02:07:47.139Z,-0.40
2019-02-27T02:10:14.847Z,-0.50
2019-02-27T02:12:50.019Z,-0.50
2019-02-27T02:15:21.858Z,-0.60
2019-02-27T02:17:51.042Z,-0.50
2019-02-27T02:20:27.202Z,-0.40
2019-02-27T02:23:01.755Z,-0.30
2019-02-27T02:25:33.891Z,-0.60
2019-02-27T02:28:08.816Z,-0.90
2019-02-27T02:30:37.985Z,-0.70
2019-02-27T02:33:29.070Z,-0.60
2019-02-27T02:36:02.367Z,-0.60
2019-02-27T02:38:31.572Z,-0.60
2019-02-27T02:41:17.203Z,-0.70
2019-02-27T02:43:52.367Z,-0.80
2019-02-27T02:46:21.539Z,-0.60
2019-02-27T02:48:53.451Z,-0.60
2019-02-27T02:51:29.895Z,-0.60
2019-02-27T02:54:16.838Z,-0.70
2019-02-27T02:56:46.016Z,-0.80
2019-02-27T02:59:31.960Z,-0.80
2019-02-27T03:02:01.183Z,-0.90
2019-02-27T03:04:30.363Z,-0.80
2019-02-27T03:07:09.741Z,-0.90
2019-02-27T03:09:36.437Z,-1.20
2019-02-27T03:12:22.085Z,-1.20
2019-02-27T03:14:54.342Z,-1.10
2019-02-27T03:17:31.065Z,-1.30
2019-02-27T03:20:03.402Z,-1.40
2019-02-27T03:22:40.369Z,-1.40
2019-02-27T03:25:07.444Z,-1.40
2019-02-27T03:27:39.651Z,-1.30
2019-02-27T03:30:11.939Z,-1.10
2019-02-27T03:32:48.276Z,-1.10
2019-02-27T03:35:17.460Z,-1.00
2019-02-27T03:37:48.561Z,-1.00
2019-02-27T03:40:26.759Z,-1.00
2019-02-27T03:43:10.166Z,-1.20
2019-02-27T03:45:54.123Z,-1.20
2019-02-27T03:48:27.733Z,-1.10
2019-02-27T03:50:57.117Z,-1.00
2019-02-27T03:53:28.963Z,-1.00
2019-02-27T03:55:58.170Z,-0.90
2019-02-27T03:58:30.580Z,-1.00
2019-02-27T04:00:58.248Z,-1.20
2019-02-27T04:03:27.431Z,-1.20
2019-02-27T04:06:05.693Z,-1.20
2019-02-27T04:08:43.619Z,-1.40
2019-02-27T04:11:06.971Z,-1.70
2019-02-27T04:13:34.640Z,-1.80
2019-02-27T04:16:02.267Z,-1.70
2019-02-27T04:18:29.392Z,-1.70
2019-02-27T04:20:57.099Z,-1.70
2019-02-27T04:23:28.774Z,-1.60
2019-02-27T04:25:56.407Z,-1.50
2019-02-27T04:28:24.136Z,-1.40
2019-02-27T04:30:52.081Z,-1.40
2019-02-27T04:33:23.230Z,-1.40
2019-02-27T04:35:50.199Z,-1.40
2019-02-27T04:38:17.847Z,-1.40
2019-02-27T04:40:45.513Z,-1.40
2019-02-27T04:43:13.140Z,-1.60
2019-02-27T04:45:40.775Z,-1.60
2019-02-27T04:48:08.431Z,-1.70
2019-02-27T04:50:36.067Z,-1.80
2019-02-27T04:53:03.731Z,-1.90
2019-02-27T04:55:31.356Z,-2.00
2019-02-27T04:57:58.987Z,-1.80
2019-02-27T05:00:26.905Z,-1.70
2019-02-27T05:02:54.651Z,-1.60
2019-02-27T05:05:22.294Z,-1.60
2019-02-27T05:07:54.111Z,-1.70
2019-02-27T05:10:19.312Z,-1.60
2019-02-27T05:12:48.159Z,-1.60
2019-02-27T05:15:16.315Z,-1.60
2019-02-27T05:17:43.948Z,-1.50
2019-02-27T05:20:12.586Z,-1.50
2019-02-27T05:22:40.415Z,-1.60
2019-02-27T05:25:08.059Z,-1.80
2019-02-27T05:27:35.711Z,-1.90
2019-02-27T05:30:03.922Z,-1.80
2019-02-27T05:32:31.567Z,-1.70
2019-02-27T05:34:59.210Z,-1.70
2019-02-27T05:37:26.844Z,-1.60
2019-02-27T05:39:54.487Z,-1.60
2019-02-27T05:42:22.117Z,-1.70
2019-02-27T05:44:49.764Z,-1.70
2019-02-27T05:47:17.399Z,-1.70
2019-02-27T05:49:45.050Z,-1.70
2019-02-27T05:52:14.363Z,-1.80
2019-02-27T05:54:42.811Z,-1.80
2019-02-27T05:57:10.447Z,-1.70
2019-02-27T05:59:38.084Z,-1.70
2019-02-27T06:02:05.724Z,-1.70
2019-02-27T06:04:34.542Z,-1.70
2019-02-27T06:07:02.291Z,-1.70
2019-02-27T06:09:29.925Z,-1.70
2019-02-27T06:11:57.567Z,-1.60
2019-02-27T06:14:25.199Z,-1.60
2019-02-27T06:16:54.382Z,-1.70
2019-02-27T06:19:22.017Z,-1.70
2019-02-27T06:21:49.672Z,-1.70
2019-02-27T06:24:17.303Z,-1.70
2019-02-27T06:26:44.947Z,-1.70
2019-02-27T06:29:12.580Z,-1.70
2019-02-27T06:31:40.228Z,-1.70
2019-02-27T06:34:08.852Z,-1.80
2019-02-27T06:36:39.221Z,-1.90
2019-02-27T06:39:05.932Z,-1.70
2019-02-27T06:41:33.617Z,-1.60
2019-02-27T06:44:01.510Z,-1.60
2019-02-27T06:46:29.867Z,-1.50
2019-02-27T06:48:57.502Z,-1.40
2019-02-27T06:51:25.152Z,-1.30
2019-02-27T06:53:52.783Z,-1.30
2019-02-27T06:56:20.423Z,-1.20
2019-02-27T06:58:50.132Z,-1.40
2019-02-27T07:01:17.427Z,-1.40
2019-02-27T07:03:45.083Z,-1.40
2019-02-27T07:06:12.722Z,-1.50
2019-02-27T07:08:40.375Z,-1.30
2019-02-27T07:11:10.922Z,-1.00
2019-02-27T07:13:37.456Z,-0.90
2019-02-27T07:16:05.079Z,-0.70
2019-02-27T07:18:32.735Z,-0.60
2019-02-27T07:21:00.370Z,-0.60
2019-02-27T07:23:28.037Z,-0.60
2019-02-27T07:25:55.673Z,-0.50
2019-02-27T07:28:23.315Z,-0.20
2019-02-27T07:30:50.955Z,-0.20
2019-02-27T07:33:18.599Z,-0.10
2019-02-27T07:35:46.229Z,0.00
2019-02-27T07:38:13.871Z,0.10
2019-02-27T07:40:42.933Z,0.20
2019-02-27T07:43:10.871Z,0.30
2019-02-27T07:45:38.500Z,0.40
2019-02-27T07:48:06.148Z,0.50
2019-02-27T07:50:33.789Z,0.90
2019-02-27T07:53:01.413Z,1.30
2019-02-27T07:55:29.063Z,1.60
2019-02-27T07:57:58.773Z,1.90
2019-02-27T08:00:26.533Z,2.00
2019-02-27T08:02:54.263Z,2.10
2019-02-27T08:05:21.903Z,2.40
2019-02-27T08:07:49.979Z,2.50
2019-02-27T08:10:21.942Z,2.70
2019-02-27T08:12:50.556Z,2.80
2019-02-27T08:15:18.890Z,3.00
2019-02-27T08:17:46.559Z,3.20
2019-02-27T08:20:14.602Z,3.10
2019-02-27T08:22:44.162Z,3.20
2019-02-27T08:25:12.982Z,3.50
2019-02-27T08:27:43.054Z,3.80
2019-02-27T08:30:22.711Z,4.20
2019-02-27T08:32:52.911Z,4.40
2019-02-27T08:35:20.550Z,4.60
2019-02-27T08:37:48.237Z,4.60
2019-02-27T08:40:15.969Z,4.40
2019-02-27T08:42:43.605Z,4.50
2019-02-27T08:45:19.196Z,4.90
2019-02-27T08:47:43.400Z,5.20
2019-02-27T08:50:13.825Z,5.30
2019-02-27T08:52:44.381Z,5.30
2019-02-27T08:55:19.953Z,5.70
2019-02-27T08:57:42.594Z,5.90
2019-02-27T09:00:14.245Z,6.10
2019-02-27T09:05:19.547Z,6.50
2019-02-27T09:07:45.131Z,6.80
2019-02-27T09:10:14.049Z,7.00
2019-02-27T09:12:45.441Z,7.20
2019-02-27T09:15:13.527Z,7.30
2019-02-27T09:17:41.150Z,7.60
2019-02-27T09:20:10.472Z,7.70
2019-02-27T09:22:39.037Z,7.90
2019-02-27T09:25:07.443Z,7.80
2019-02-27T09:27:35.318Z,7.90
2019-02-27T09:32:30.675Z,8.40
2019-02-27T09:34:59.665Z,8.40
2019-02-27T09:37:33.579Z,8.50
2019-02-27T09:40:04.772Z,8.60
2019-02-27T09:44:57.934Z,9.00
2019-02-27T09:47:25.901Z,9.30
2019-02-27T09:49:54.215Z,9.00
2019-02-27T09:52:23.706Z,9.00
2019-02-27T09:54:51.216Z,9.50
2019-02-27T09:57:18.865Z,9.60
2019-02-27T09:59:46.495Z,9.90
2019-02-27T10:02:14.155Z,10.30
2019-02-27T10:04:41.794Z,10.50
2019-02-27T10:07:09.502Z,10.10
2019-02-27T10:09:37.139Z,10.00
2019-02-27T10:12:04.782Z,10.00
2019-02-27T10:14:32.423Z,10.50
2019-02-27T10:17:00.067Z,10.90
2019-02-27T10:19:27.788Z,11.30
2019-02-27T10:21:55.438Z,11.20
2019-02-27T10:24:23.098Z,11.70
2019-02-27T10:26:53.550Z,11.90
2019-02-27T10:29:20.109Z,11.70
2019-02-27T10:34:17.596Z,11.70
2019-02-27T10:39:12.832Z,12.60
2019-02-27T10:44:20.863Z,13.60
2019-02-27T10:46:48.508Z,14.50
2019-02-27T10:49:16.148Z,14.70
2019-02-27T10:51:44.381Z,14.80
2019-02-27T10:54:17.968Z,14.80
2019-02-27T10:56:45.603Z,14.80
2019-02-27T10:59:13.247Z,14.80
2019-02-27T11:04:15.265Z,15.60
2019-02-27T11:06:42.671Z,15.30
2019-02-27T11:09:11.863Z,15.30
2019-02-27T11:11:39.506Z,15.80
2019-02-27T11:16:50.891Z,16.90
2019-02-27T11:19:18.544Z,17.20
2019-02-27T11:21:46.180Z,17.90
2019-02-27T11:29:14.486Z,18.90
2019-02-27T11:34:27.242Z,19.60
2019-02-27T11:36:54.874Z,19.60
2019-02-27T11:39:22.528Z,19.90
2019-02-27T11:44:32.670Z,20.10
2019-02-27T11:47:00.344Z,20.70
2019-02-27T11:49:27.995Z,20.10
2019-02-27T11:51:57.046Z,20.10
2019-02-27T11:59:22.262Z,21.40
2019-02-27T12:01:49.912Z,21.90
2019-02-27T12:04:20.090Z,22.10
2019-02-27T12:06:47.767Z,22.80
2019-02-27T12:09:15.406Z,21.60
2019-02-27T12:11:48.319Z,21.80
2019-02-27T12:14:14.395Z,21.70
2019-02-27T12:16:42.048Z,22.10
2019-02-27T12:19:09.679Z,22.60
2019-02-27T12:21:37.332Z,22.40
2019-02-27T12:24:05.472Z,23.00
2019-02-27T12:26:34.423Z,22.90
2019-02-27T12:29:02.584Z,22.20
2019-02-27T12:31:30.235Z,22.20
2019-02-27T12:34:02.482Z,22.50
2019-02-27T12:36:27.247Z,23.60
2019-02-27T12:38:54.904Z,23.40
2019-02-27T12:41:22.551Z,22.50
2019-02-27T12:43:52.550Z,23.40
2019-02-27T12:46:21.095Z,21.80
2019-02-27T12:48:48.735Z,23.30
2019-02-27T12:51:16.391Z,24.10
2019-02-27T12:53:45.983Z,23.80
2019-02-27T12:56:13.629Z,23.60
2019-02-27T12:58:41.267Z,24.30
2019-02-27T13:01:08.917Z,23.30
2019-02-27T13:03:49.643Z,23.10
2019-02-27T13:06:17.292Z,23.80
2019-02-27T13:08:45.195Z,24.30
2019-02-27T13:11:12.843Z,25.10
2019-02-27T13:13:40.484Z,25.00
2019-02-27T13:18:35.502Z,25.60
2019-02-27T13:21:03.137Z,25.80
2019-02-27T13:23:39.380Z,25.70
2019-02-27T13:26:07.355Z,25.70
2019-02-27T13:28:35.004Z,26.10
2019-02-27T13:31:02.639Z,27.20
2019-02-27T13:35:59.657Z,27.70
2019-02-27T13:38:27.032Z,28.00
2019-02-27T13:40:54.687Z,27.10
2019-02-27T13:43:26.839Z,27.60
2019-02-27T13:45:53.671Z,28.50
2019-02-27T13:48:21.315Z,28.30
2019-02-27T13:50:48.950Z,28.60
2019-02-27T13:53:16.600Z,28.70
2019-02-27T13:55:45.337Z,28.60
2019-02-27T13:58:13.615Z,27.10
2019-02-27T14:00:41.531Z,26.80
2019-02-27T14:03:12.048Z,24.30
2019-02-27T14:05:38.561Z,24.30
2019-02-27T14:08:06.381Z,26.30
2019-02-27T14:10:34.131Z,26.50
2019-02-27T14:13:01.778Z,26.40
2019-02-27T14:15:31.377Z,26.00
2019-02-27T14:20:26.911Z,24.60
2019-02-27T14:23:01.840Z,25.80
2019-02-27T14:25:33.076Z,27.10
2019-02-27T14:27:59.723Z,27.30
2019-02-27T14:32:57.812Z,25.50
2019-02-27T14:35:25.454Z,27.20
2019-02-27T14:37:53.096Z,25.30
2019-02-27T14:40:21.210Z,26.30
2019-02-27T14:42:53.991Z,27.70
2019-02-27T14:45:19.359Z,26.50
2019-02-27T14:47:47.483Z,27.30
2019-02-27T14:50:17.059Z,26.30
2019-02-27T14:52:47.798Z,27.00
2019-02-27T14:55:16.015Z,27.70
2019-02-27T14:57:50.135Z,28.40
2019-02-27T15:00:24.705Z,28.40
2019-02-27T15:02:56.574Z,28.10
2019-02-27T15:05:24.335Z,28.30
2019-02-27T15:07:53.450Z,28.00
2019-02-27T15:10:21.790Z,27.10
2019-02-27T15:12:53.850Z,26.80
2019-02-27T15:15:24.156Z,26.40
2019-02-27T15:17:51.903Z,26.70
2019-02-27T15:20:23.430Z,27.20
2019-02-27T15:22:53.742Z,26.90
2019-02-27T15:27:48.932Z,27.10
2019-02-27T15:30:17.854Z,25.90
2019-02-27T15:32:46.494Z,26.70
2019-02-27T15:35:15.555Z,27.10
2019-02-27T15:37:43.349Z,26.60
2019-02-27T15:40:18.634Z,26.50
2019-02-27T15:42:46.535Z,26.30
2019-02-27T15:45:15.358Z,26.00
2019-02-27T15:47:43.075Z,25.10
2019-02-27T15:50:12.075Z,23.80
2019-02-27T15:52:40.680Z,23.00
2019-02-27T15:55:10.214Z,22.70
2019-02-27T15:57:37.855Z,23.40
2019-02-27T16:00:06.763Z,23.70
2019-02-27T16:02:37.531Z,24.40
2019-02-27T16:05:06.677Z,23.80
2019-02-27T16:07:34.331Z,22.40
2019-02-27T16:10:06.654Z,21.40
2019-02-27T16:12:31.342Z,20.30
2019-02-27T16:14:58.987Z,19.40
2019-02-27T16:17:30.870Z,18.90
2019-02-27T16:19:56.200Z,18.60
2019-02-27T16:22:23.939Z,18.30
2019-02-27T16:24:51.588Z,18.20
2019-02-27T16:27:19.251Z,18.20
2019-02-27T16:29:46.883Z,17.90
2019-02-27T16:32:17.559Z,17.70
2019-02-27T16:34:45.271Z,17.30
2019-02-27T16:37:12.918Z,17.00
2019-02-27T16:39:41.629Z,16.60
2019-02-27T16:42:16.915Z,15.90
2019-02-27T16:44:44.546Z,15.60
2019-02-27T16:47:12.195Z,15.40
2019-02-27T16:49:39.831Z,15.10
2019-02-27T16:52:13.698Z,14.80
2019-02-27T16:54:41.340Z,14.60
2019-02-27T16:57:08.970Z,14.20
2019-02-27T16:59:36.626Z,13.90
2019-02-27T17:04:38.146Z,12.80
2019-02-27T17:07:05.778Z,12.40
2019-02-27T17:09:33.418Z,12.00
2019-02-27T17:12:04.258Z,12.00
2019-02-27T17:14:30.437Z,11.60
2019-02-27T17:16:58.077Z,10.90
2019-02-27T17:19:25.719Z,10.50
2019-02-27T17:21:58.438Z,10.40
2019-02-27T17:24:23.552Z,10.20
2019-02-27T17:26:51.187Z,10.10
2019-02-27T17:29:18.832Z,10.20
2019-02-27T17:31:49.253Z,10.20
2019-02-27T17:34:15.840Z,10.20
2019-02-27T17:36:43.467Z,10.10
2019-02-27T17:39:11.119Z,10.10
2019-02-27T17:41:38.766Z,9.80
2019-02-27T17:44:06.409Z,9.70
2019-02-27T17:46:34.107Z,9.40
2019-02-27T17:49:01.755Z,9.50
2019-02-27T17:51:31.127Z,9.40
2019-02-27T17:53:58.787Z,9.50
2019-02-27T17:56:26.482Z,9.00
2019-02-27T17:58:54.127Z,8.50
2019-02-27T18:01:24.971Z,8.30
2019-02-27T18:03:59.223Z,7.90
2019-02-27T18:06:26.853Z,7.70
2019-02-27T18:08:54.490Z,7.90
2019-02-27T18:11:22.119Z,7.70
2019-02-27T18:13:49.762Z,7.40
2019-02-27T18:16:17.397Z,7.50
2019-02-27T18:18:45.047Z,7.70
2019-02-27T18:21:12.675Z,7.70
2019-02-27T18:23:40.324Z,7.40
2019-02-27T18:26:07.951Z,7.30
2019-02-27T18:28:35.595Z,7.30
2019-02-27T18:31:03.306Z,6.90
2019-02-27T18:33:31.868Z,6.60
2019-02-27T18:36:04.336Z,6.50
2019-02-27T18:38:28.880Z,6.70
2019-02-27T18:40:56.520Z,6.70
2019-02-27T18:43:31.938Z,6.30
2019-02-27T18:45:59.582Z,5.80
2019-02-27T18:48:27.210Z,5.70
2019-02-27T18:50:55.948Z,6.00
2019-02-27T18:53:24.229Z,6.20
2019-02-27T18:55:51.867Z,6.20
2019-02-27T18:58:20.955Z,5.90
2019-02-27T19:00:48.871Z,5.80
2019-02-27T19:03:16.498Z,5.60
2019-02-27T19:05:44.143Z,5.70
2019-02-27T19:08:11.784Z,5.90
2019-02-27T19:10:42.446Z,6.00
2019-02-27T19:13:11.434Z,6.10
2019-02-27T19:15:39.082Z,6.20
2019-02-27T19:18:07.417Z,6.30
2019-02-27T19:20:36.738Z,5.90
2019-02-27T19:23:09.034Z,5.60
2019-02-27T19:25:36.679Z,5.70
2019-02-27T19:28:04.749Z,5.70
2019-02-27T19:30:32.456Z,5.40
2019-02-27T19:33:02.040Z,5.10
2019-02-27T19:35:29.523Z,4.90
2019-02-27T19:37:57.159Z,5.00
2019-02-27T19:40:29.898Z,5.10
2019-02-27T19:42:55.695Z,4.80
2019-02-27T19:45:23.402Z,4.60
2019-02-27T19:47:54.672Z,4.50
2019-02-27T19:50:20.399Z,4.80
2019-02-27T19:52:48.031Z,5.00
2019-02-27T19:55:15.755Z,4.90
2019-02-27T19:57:43.623Z,4.70
2019-02-27T20:00:19.119Z,4.40
2019-02-27T20:02:48.747Z,4.20
2019-02-27T20:05:18.882Z,4.10
2019-02-27T20:07:45.733Z,4.10
2019-02-27T20:10:14.741Z,4.10
2019-02-27T20:12:42.448Z,4.20
2019-02-27T20:15:14.639Z,4.10
2019-02-27T20:17:42.359Z,3.90
2019-02-27T20:20:14.218Z,3.70
2019-02-27T20:22:42.331Z,3.60
2019-02-27T20:25:11.499Z,3.50
2019-02-27T20:27:39.143Z,3.50
2019-02-27T20:30:08.311Z,3.40
2019-02-27T20:32:36.020Z,3.30
2019-02-27T20:35:04.225Z,3.30
2019-02-27T20:37:31.862Z,3.30
2019-02-27T20:39:59.587Z,3.40
2019-02-27T20:42:27.209Z,3.60
2019-02-27T20:44:54.834Z,3.70
2019-02-27T20:47:22.694Z,3.60
2019-02-27T20:49:50.382Z,3.40
2019-02-27T20:52:18.979Z,3.40
2019-02-27T20:54:46.614Z,3.50
2019-02-27T20:57:14.260Z,3.40
2019-02-27T20:59:41.893Z,3.40
2019-02-27T21:02:09.552Z,3.50
2019-02-27T21:04:39.096Z,3.50
2019-02-27T21:07:07.439Z,3.40
2019-02-27T21:09:35.140Z,3.50
2019-02-27T21:12:04.547Z,3.40
2019-02-27T21:14:32.152Z,3.30
2019-02-27T21:16:59.782Z,3.10
2019-02-27T21:19:27.419Z,3.10
2019-02-27T21:21:55.070Z,3.00
2019-02-27T21:24:23.702Z,2.80
2019-02-27T21:26:51.331Z,2.70
2019-02-27T21:29:19.065Z,2.70
2019-02-27T21:31:46.703Z,2.80
2019-02-27T21:34:20.245Z,2.80
2019-02-27T21:36:47.894Z,2.80
2019-02-27T21:39:15.548Z,2.80
2019-02-27T21:41:45.490Z,2.60
2019-02-27T21:44:25.088Z,2.60
2019-02-27T21:46:47.170Z,2.60
2019-02-27T21:49:13.255Z,2.40
2019-02-27T21:51:40.887Z,2.20
2019-02-27T21:54:16.635Z,2.30
2019-02-27T21:56:44.271Z,2.30
2019-02-27T21:59:11.907Z,2.40
2019-02-27T22:01:39.540Z,2.30
2019-02-27T22:04:09.686Z,2.00
2019-02-27T22:06:36.538Z,1.70
2019-02-27T22:09:05.221Z,1.80
2019-02-27T22:11:32.929Z,1.70
2019-02-27T22:14:00.570Z,1.50
2019-02-27T22:16:30.505Z,1.70
2019-02-27T22:18:57.567Z,1.70
2019-02-27T22:21:25.194Z,1.80
2019-02-27T22:23:54.814Z,1.70
2019-02-27T22:26:22.465Z,1.60
2019-02-27T22:28:51.111Z,1.70
2019-02-27T22:31:19.516Z,1.60
2019-02-27T22:33:47.151Z,1.60
2019-02-27T22:36:14.799Z,1.50
2019-02-27T22:38:42.432Z,0.90
2019-02-27T22:41:10.182Z,0.50
2019-02-27T22:43:43.676Z,0.40
2019-02-27T22:46:13.661Z,0.70
2019-02-27T22:48:40.699Z,0.70
2019-02-27T22:51:08.920Z,0.90
2019-02-27T22:53:38.519Z,1.10
2019-02-27T22:56:06.159Z,1.20
2019-02-27T22:58:33.791Z,1.10
2019-02-27T23:01:07.363Z,0.90
2019-02-27T23:03:39.443Z,1.10
2019-02-27T23:06:09.296Z,1.10
2019-02-27T23:08:37.070Z,1.10
2019-02-27T23:11:04.885Z,0.90
2019-02-27T23:13:32.515Z,0.60
2019-02-27T23:16:00.162Z,0.70
2019-02-27T23:18:27.799Z,0.70
2019-02-27T23:20:56.146Z,0.60
2019-02-27T23:23:23.917Z,0.40
2019-02-27T23:25:51.563Z,0.30
2019-02-27T23:28:19.190Z,0.40
2019-02-27T23:30:47.321Z,0.50
2019-02-27T23:33:15.643Z,0.40
2019-02-27T23:35:43.289Z,0.20
2019-02-27T23:38:10.928Z,0.20
2019-02-27T23:40:38.563Z,0.20
2019-02-27T23:43:11.299Z,0.40
2019-02-27T23:45:41.384Z,0.50
2019-02-27T23:48:08.299Z,0.40
2019-02-27T23:50:35.938Z,0.40
2019-02-27T23:53:05.538Z,0.30
2019-02-27T23:55:33.179Z,0.00
2019-02-27T23:58:00.817Z,0.10
